sensor_id;sensor_type;location;lat;lon;timestamp;P1;durP1;ratioP1;P2;durP2;ratioP2
61373;SDS011;47242;48.158;-1.586;2023-05-21T04:30:35;9.63;;;3.13;;
61373;SDS011;47242;48.158;-1.586;2023-05-21T04:33:01;6.47;;;2.95;;
61373;SDS011;47242;48.158;-1.586;2023-05-21T04:35:27;7.65;;;3.13;;
61373;SDS011;47242;48.158;-1.586;2023-05-21T04:37:53;13.18;;;3.60;;
61373;SDS011;47242;48.158;-1.586;2023-05-21T04:40:19;9.15;;;3.30;;
61373;SDS011;47242;48.158;-1.586;2023-05-21T04:42:48;6.15;;;3.30;;
61373;SDS011;47242;48.158;-1.586;2023-05-21T04:45:14;9.52;;;3.22;;
61373;SDS011;47242;48.158;-1.586;2023-05-21T04:47:41;10.45;;;3.15;;
61373;SDS011;47242;48.158;-1.586;2023-05-21T04:50:08;9.32;;;3.25;;
61373;SDS011;47242;48.158;-1.586;2023-05-21T04:52:34;14.90;;;3.47;;
61373;SDS011;47242;48.158;-1.586;2023-05-21T04:55:00;8.48;;;3.30;;
61373;SDS011;47242;48.158;-1.586;2023-05-21T04:57:27;9.52;;;3.88;;
61373;SDS011;47242;48.158;-1.586;2023-05-21T04:59:53;12.18;;;4.50;;
61373;SDS011;47242;48.158;-1.586;2023-05-21T05:02:19;12.13;;;4.93;;
61373;SDS011;47242;48.158;-1.586;2023-05-21T05:04:44;14.98;;;4.88;;
61373;SDS011;47242;48.158;-1.586;2023-05-21T05:07:10;8.15;;;3.90;;
61373;SDS011;47242;48.158;-1.586;2023-05-21T05:09:36;9.82;;;4.43;;
61373;SDS011;47242;48.158;-1.586;2023-05-21T05:12:02;11.02;;;5.43;;
61373;SDS011;47242;48.158;-1.586;2023-05-21T05:14:28;12.77;;;4.95;;
61373;SDS011;47242;48.158;-1.586;2023-05-21T05:16:54;13.25;;;4.47;;
61373;SDS011;47242;48.158;-1.586;2023-05-21T05:19:23;14.82;;;5.70;;
61373;SDS011;47242;48.158;-1.586;2023-05-21T05:21:49;10.07;;;5.45;;
61373;SDS011;47242;48.158;-1.586;2023-05-21T05:24:15;9.27;;;5.40;;
61373;SDS011;47242;48.158;-1.586;2023-05-21T05:26:40;12.35;;;5.07;;
61373;SDS011;47242;48.158;-1.586;2023-05-21T05:29:06;9.63;;;5.32;;
61373;SDS011;47242;48.158;-1.586;2023-05-21T05:31:31;12.95;;;5.90;;
61373;SDS011;47242;48.158;-1.586;2023-05-21T05:33:57;12.10;;;6.30;;
61373;SDS011;47242;48.158;-1.586;2023-05-21T05:36:23;14.10;;;6.20;;
61373;SDS011;47242;48.158;-1.586;2023-05-21T05:38:48;15.43;;;6.80;;
61373;SDS011;47242;48.158;-1.586;2023-05-21T05:41:15;13.65;;;5.70;;
61373;SDS011;47242;48.158;-1.586;2023-05-21T05:43:40;16.27;;;7.25;;
61373;SDS011;47242;48.158;-1.586;2023-05-21T05:46:06;13.77;;;6.40;;
61373;SDS011;47242;48.158;-1.586;2023-05-21T05:48:32;15.60;;;7.05;;
61373;SDS011;47242;48.158;-1.586;2023-05-21T05:50:57;14.93;;;6.68;;
61373;SDS011;47242;48.158;-1.586;2023-05-21T05:53:23;16.42;;;6.47;;
61373;SDS011;47242;48.158;-1.586;2023-05-21T05:55:48;14.98;;;6.82;;
61373;SDS011;47242;48.158;-1.586;2023-05-21T05:58:14;14.23;;;7.40;;
61373;SDS011;47242;48.158;-1.586;2023-05-21T06:00:40;12.15;;;6.68;;
61373;SDS011;47242;48.158;-1.586;2023-05-21T06:03:06;22.77;;;7.43;;
61373;SDS011;47242;48.158;-1.586;2023-05-21T06:05:31;16.08;;;7.43;;
61373;SDS011;47242;48.158;-1.586;2023-05-21T06:07:57;15.07;;;7.10;;
61373;SDS011;47242;48.158;-1.586;2023-05-21T06:10:22;20.52;;;8.05;;
61373;SDS011;47242;48.158;-1.586;2023-05-21T06:12:48;15.48;;;8.50;;
61373;SDS011;47242;48.158;-1.586;2023-05-21T06:15:14;23.42;;;8.50;;
61373;SDS011;47242;48.158;-1.586;2023-05-21T06:17:40;16.77;;;8.63;;
61373;SDS011;47242;48.158;-1.586;2023-05-21T06:20:07;13.63;;;7.35;;
61373;SDS011;47242;48.158;-1.586;2023-05-21T06:22:33;12.65;;;7.80;;
61373;SDS011;47242;48.158;-1.586;2023-05-21T06:25:00;18.10;;;8.00;;
61373;SDS011;47242;48.158;-1.586;2023-05-21T06:27:26;15.40;;;6.97;;
61373;SDS011;47242;48.158;-1.586;2023-05-21T06:29:52;14.98;;;7.40;;
61373;SDS011;47242;48.158;-1.586;2023-05-21T06:32:18;12.23;;;7.63;;
61373;SDS011;47242;48.158;-1.586;2023-05-21T06:34:45;17.92;;;8.45;;
61373;SDS011;47242;48.158;-1.586;2023-05-21T06:37:11;17.25;;;9.13;;
61373;SDS011;47242;48.158;-1.586;2023-05-21T06:39:36;15.43;;;8.45;;
61373;SDS011;47242;48.158;-1.586;2023-05-21T06:42:02;17.15;;;8.98;;
61373;SDS011;47242;48.158;-1.586;2023-05-21T06:44:28;15.57;;;8.32;;
61373;SDS011;47242;48.158;-1.586;2023-05-21T06:46:53;17.83;;;9.38;;
61373;SDS011;47242;48.158;-1.586;2023-05-21T06:49:19;17.63;;;8.98;;
61373;SDS011;47242;48.158;-1.586;2023-05-21T06:51:45;14.23;;;7.30;;
61373;SDS011;47242;48.158;-1.586;2023-05-21T06:54:10;14.38;;;7.95;;
61373;SDS011;47242;48.158;-1.586;2023-05-21T06:56:36;15.43;;;7.68;;
61373;SDS011;47242;48.158;-1.586;2023-05-21T06:59:02;17.60;;;7.82;;
61373;SDS011;47242;48.158;-1.586;2023-05-21T07:05:04;13.18;;;7.50;;
61373;SDS011;47242;48.158;-1.586;2023-05-21T07:07:30;12.90;;;8.27;;
61373;SDS011;47242;48.158;-1.586;2023-05-21T07:09:55;14.73;;;7.68;;
61373;SDS011;47242;48.158;-1.586;2023-05-21T07:12:21;16.80;;;7.50;;
61373;SDS011;47242;48.158;-1.586;2023-05-21T07:14:47;15.73;;;8.27;;
61373;SDS011;47242;48.158;-1.586;2023-05-21T07:17:12;15.05;;;7.75;;
61373;SDS011;47242;48.158;-1.586;2023-05-21T07:19:38;14.00;;;7.32;;
61373;SDS011;47242;48.158;-1.586;2023-05-21T07:22:04;11.27;;;6.47;;
61373;SDS011;47242;48.158;-1.586;2023-05-21T07:24:30;10.40;;;6.47;;
61373;SDS011;47242;48.158;-1.586;2023-05-21T07:26:56;11.57;;;6.93;;
61373;SDS011;47242;48.158;-1.586;2023-05-21T07:29:21;12.70;;;6.95;;
61373;SDS011;47242;48.158;-1.586;2023-05-21T07:31:47;11.95;;;6.63;;
61373;SDS011;47242;48.158;-1.586;2023-05-21T07:34:13;9.88;;;7.38;;
61373;SDS011;47242;48.158;-1.586;2023-05-21T07:36:39;9.90;;;5.57;;
61373;SDS011;47242;48.158;-1.586;2023-05-21T07:39:07;11.80;;;5.68;;
61373;SDS011;47242;48.158;-1.586;2023-05-21T07:41:33;12.43;;;6.13;;
61373;SDS011;47242;48.158;-1.586;2023-05-21T07:43:58;11.95;;;6.22;;
61373;SDS011;47242;48.158;-1.586;2023-05-21T07:46:25;9.98;;;5.85;;
61373;SDS011;47242;48.158;-1.586;2023-05-21T07:48:51;11.35;;;5.97;;
61373;SDS011;47242;48.158;-1.586;2023-05-21T07:51:17;11.20;;;5.88;;
61373;SDS011;47242;48.158;-1.586;2023-05-21T07:53:42;11.50;;;5.82;;
61373;SDS011;47242;48.158;-1.586;2023-05-21T07:56:08;11.07;;;6.28;;
61373;SDS011;47242;48.158;-1.586;2023-05-21T07:58:34;9.40;;;5.68;;
61373;SDS011;47242;48.158;-1.586;2023-05-21T08:01:00;16.27;;;6.78;;
61373;SDS011;47242;48.158;-1.586;2023-05-21T08:03:25;10.68;;;5.90;;
61373;SDS011;47242;48.158;-1.586;2023-05-21T08:05:54;13.05;;;6.07;;
61373;SDS011;47242;48.158;-1.586;2023-05-21T08:08:20;11.02;;;6.40;;
61373;SDS011;47242;48.158;-1.586;2023-05-21T08:10:47;11.23;;;6.43;;
61373;SDS011;47242;48.158;-1.586;2023-05-21T08:13:14;11.38;;;6.05;;
61373;SDS011;47242;48.158;-1.586;2023-05-21T08:15:40;9.73;;;6.50;;
61373;SDS011;47242;48.158;-1.586;2023-05-21T08:18:06;10.43;;;6.32;;
61373;SDS011;47242;48.158;-1.586;2023-05-21T08:20:31;11.15;;;6.95;;
61373;SDS011;47242;48.158;-1.586;2023-05-21T08:22:58;9.82;;;6.63;;
61373;SDS011;47242;48.158;-1.586;2023-05-21T08:25:27;9.90;;;5.93;;
61373;SDS011;47242;48.158;-1.586;2023-05-21T08:27:52;12.18;;;6.10;;
61373;SDS011;47242;48.158;-1.586;2023-05-21T08:30:18;11.48;;;6.03;;
61373;SDS011;47242;48.158;-1.586;2023-05-21T08:32:44;11.20;;;5.25;;
61373;SDS011;47242;48.158;-1.586;2023-05-21T08:35:11;12.15;;;6.13;;
61373;SDS011;47242;48.158;-1.586;2023-05-21T08:37:36;10.50;;;5.60;;
61373;SDS011;47242;48.158;-1.586;2023-05-21T08:40:02;9.15;;;5.57;;
61373;SDS011;47242;48.158;-1.586;2023-05-21T08:42:35;11.73;;;6.03;;
61373;SDS011;47242;48.158;-1.586;2023-05-21T08:45:10;11.95;;;6.43;;
61373;SDS011;47242;48.158;-1.586;2023-05-21T08:47:37;8.95;;;6.40;;
61373;SDS011;47242;48.158;-1.586;2023-05-21T08:50:08;11.45;;;6.05;;
61373;SDS011;47242;48.158;-1.586;2023-05-21T08:52:35;11.90;;;7.93;;
61373;SDS011;47242;48.158;-1.586;2023-05-21T08:55:07;13.65;;;8.63;;
61373;SDS011;47242;48.158;-1.586;2023-05-21T08:57:33;12.10;;;7.15;;
61373;SDS011;47242;48.158;-1.586;2023-05-21T08:59:59;13.02;;;7.47;;
61373;SDS011;47242;48.158;-1.586;2023-05-21T09:02:26;11.57;;;6.85;;
61373;SDS011;47242;48.158;-1.586;2023-05-21T09:04:52;12.15;;;6.28;;
61373;SDS011;47242;48.158;-1.586;2023-05-21T09:07:23;10.52;;;6.07;;
61373;SDS011;47242;48.158;-1.586;2023-05-21T09:09:57;7.60;;;6.20;;
61373;SDS011;47242;48.158;-1.586;2023-05-21T09:12:27;12.18;;;6.45;;
61373;SDS011;47242;48.158;-1.586;2023-05-21T09:14:53;11.40;;;6.57;;
61373;SDS011;47242;48.158;-1.586;2023-05-21T09:17:22;9.05;;;6.50;;
61373;SDS011;47242;48.158;-1.586;2023-05-21T09:20:08;11.85;;;7.22;;
61373;SDS011;47242;48.158;-1.586;2023-05-21T09:22:44;12.55;;;7.40;;
61373;SDS011;47242;48.158;-1.586;2023-05-21T09:25:15;12.93;;;6.78;;
61373;SDS011;47242;48.158;-1.586;2023-05-21T09:27:42;11.68;;;6.25;;
61373;SDS011;47242;48.158;-1.586;2023-05-21T09:30:09;12.68;;;6.82;;
61373;SDS011;47242;48.158;-1.586;2023-05-21T09:32:36;11.63;;;7.00;;
61373;SDS011;47242;48.158;-1.586;2023-05-21T09:37:43;9.70;;;6.25;;
61373;SDS011;47242;48.158;-1.586;2023-05-21T09:40:10;10.55;;;6.82;;
61373;SDS011;47242;48.158;-1.586;2023-05-21T09:42:37;10.30;;;6.20;;
61373;SDS011;47242;48.158;-1.586;2023-05-21T09:45:05;11.63;;;6.90;;
61373;SDS011;47242;48.158;-1.586;2023-05-21T09:47:32;8.13;;;5.82;;
61373;SDS011;47242;48.158;-1.586;2023-05-21T09:49:57;9.75;;;6.65;;
61373;SDS011;47242;48.158;-1.586;2023-05-21T09:52:24;11.35;;;6.82;;
61373;SDS011;47242;48.158;-1.586;2023-05-21T09:54:50;11.73;;;6.53;;
61373;SDS011;47242;48.158;-1.586;2023-05-21T09:57:22;11.25;;;6.57;;
61373;SDS011;47242;48.158;-1.586;2023-05-21T09:59:50;14.10;;;7.05;;
61373;SDS011;47242;48.158;-1.586;2023-05-21T10:02:18;14.20;;;7.00;;
61373;SDS011;47242;48.158;-1.586;2023-05-21T10:04:48;10.77;;;5.97;;
61373;SDS011;47242;48.158;-1.586;2023-05-21T10:07:18;12.65;;;6.15;;
61373;SDS011;47242;48.158;-1.586;2023-05-21T10:09:54;11.80;;;6.75;;
61373;SDS011;47242;48.158;-1.586;2023-05-21T10:12:21;10.90;;;6.68;;
61373;SDS011;47242;48.158;-1.586;2023-05-21T10:15:04;11.98;;;7.03;;
61373;SDS011;47242;48.158;-1.586;2023-05-21T10:17:33;7.95;;;5.85;;
61373;SDS011;47242;48.158;-1.586;2023-05-21T10:19:59;12.70;;;6.82;;
61373;SDS011;47242;48.158;-1.586;2023-05-21T10:22:26;8.25;;;5.97;;
61373;SDS011;47242;48.158;-1.586;2023-05-21T10:24:52;8.52;;;6.25;;
61373;SDS011;47242;48.158;-1.586;2023-05-21T10:27:19;9.02;;;6.22;;
61373;SDS011;47242;48.158;-1.586;2023-05-21T10:29:46;8.35;;;6.30;;
61373;SDS011;47242;48.158;-1.586;2023-05-21T10:32:14;8.75;;;6.28;;
61373;SDS011;47242;48.158;-1.586;2023-05-21T10:34:43;13.38;;;7.03;;
61373;SDS011;47242;48.158;-1.586;2023-05-21T10:37:09;14.00;;;6.82;;
61373;SDS011;47242;48.158;-1.586;2023-05-21T10:39:37;11.10;;;6.68;;
61373;SDS011;47242;48.158;-1.586;2023-05-21T10:56:38;12.20;;;7.10;;
61373;SDS011;47242;48.158;-1.586;2023-05-21T10:59:24;14.07;;;7.20;;
61373;SDS011;47242;48.158;-1.586;2023-05-21T11:01:56;12.70;;;7.20;;
61373;SDS011;47242;48.158;-1.586;2023-05-21T11:04:25;13.68;;;8.25;;
61373;SDS011;47242;48.158;-1.586;2023-05-21T11:06:51;13.67;;;7.73;;
61373;SDS011;47242;48.158;-1.586;2023-05-21T11:09:17;9.68;;;6.70;;
61373;SDS011;47242;48.158;-1.586;2023-05-21T11:16:51;11.20;;;6.40;;
61373;SDS011;47242;48.158;-1.586;2023-05-21T11:19:16;12.20;;;7.35;;
61373;SDS011;47242;48.158;-1.586;2023-05-21T11:21:42;14.73;;;6.15;;
61373;SDS011;47242;48.158;-1.586;2023-05-21T11:24:17;12.73;;;6.43;;
61373;SDS011;47242;48.158;-1.586;2023-05-21T11:29:12;17.67;;;9.02;;
61373;SDS011;47242;48.158;-1.586;2023-05-21T11:31:43;13.68;;;8.05;;
61373;SDS011;47242;48.158;-1.586;2023-05-21T11:34:11;10.20;;;7.18;;
61373;SDS011;47242;48.158;-1.586;2023-05-21T11:36:38;12.02;;;7.28;;
61373;SDS011;47242;48.158;-1.586;2023-05-21T11:41:58;15.65;;;7.45;;
61373;SDS011;47242;48.158;-1.586;2023-05-21T11:47:08;11.25;;;7.50;;
61373;SDS011;47242;48.158;-1.586;2023-05-21T11:49:34;14.10;;;7.28;;
61373;SDS011;47242;48.158;-1.586;2023-05-21T11:52:02;12.43;;;7.53;;
61373;SDS011;47242;48.158;-1.586;2023-05-21T11:54:29;13.13;;;7.32;;
61373;SDS011;47242;48.158;-1.586;2023-05-21T11:57:00;10.65;;;6.82;;
61373;SDS011;47242;48.158;-1.586;2023-05-21T11:59:30;13.02;;;8.20;;
61373;SDS011;47242;48.158;-1.586;2023-05-21T12:01:57;11.50;;;7.47;;
61373;SDS011;47242;48.158;-1.586;2023-05-21T12:04:30;11.93;;;6.10;;
61373;SDS011;47242;48.158;-1.586;2023-05-21T12:06:57;10.90;;;6.93;;
61373;SDS011;47242;48.158;-1.586;2023-05-21T12:09:22;11.73;;;7.20;;
61373;SDS011;47242;48.158;-1.586;2023-05-21T12:11:48;11.77;;;6.90;;
61373;SDS011;47242;48.158;-1.586;2023-05-21T12:14:15;13.18;;;6.38;;
61373;SDS011;47242;48.158;-1.586;2023-05-21T12:16:50;11.13;;;7.32;;
61373;SDS011;47242;48.158;-1.586;2023-05-21T12:19:16;10.90;;;6.95;;
61373;SDS011;47242;48.158;-1.586;2023-05-21T12:21:42;11.68;;;6.82;;
61373;SDS011;47242;48.158;-1.586;2023-05-21T12:24:08;10.45;;;7.03;;
61373;SDS011;47242;48.158;-1.586;2023-05-21T12:26:35;9.68;;;7.03;;
61373;SDS011;47242;48.158;-1.586;2023-05-21T12:29:00;11.88;;;6.53;;
61373;SDS011;47242;48.158;-1.586;2023-05-21T12:31:29;10.60;;;7.07;;
61373;SDS011;47242;48.158;-1.586;2023-05-21T12:33:56;14.02;;;7.10;;
61373;SDS011;47242;48.158;-1.586;2023-05-21T12:36:25;13.35;;;7.45;;
61373;SDS011;47242;48.158;-1.586;2023-05-21T12:38:53;17.65;;;7.28;;
61373;SDS011;47242;48.158;-1.586;2023-05-21T12:41:20;10.57;;;7.03;;
61373;SDS011;47242;48.158;-1.586;2023-05-21T12:43:46;14.80;;;8.25;;
61373;SDS011;47242;48.158;-1.586;2023-05-21T12:46:12;14.57;;;6.85;;
61373;SDS011;47242;48.158;-1.586;2023-05-21T12:49:02;11.98;;;7.25;;
61373;SDS011;47242;48.158;-1.586;2023-05-21T12:51:37;11.43;;;7.05;;
61373;SDS011;47242;48.158;-1.586;2023-05-21T12:54:12;15.45;;;7.97;;
61373;SDS011;47242;48.158;-1.586;2023-05-21T12:56:44;11.23;;;6.93;;
61373;SDS011;47242;48.158;-1.586;2023-05-21T12:59:13;11.80;;;6.28;;
61373;SDS011;47242;48.158;-1.586;2023-05-21T13:01:45;12.73;;;5.78;;
61373;SDS011;47242;48.158;-1.586;2023-05-21T13:04:12;12.13;;;6.70;;
61373;SDS011;47242;48.158;-1.586;2023-05-21T13:06:43;12.93;;;7.47;;
61373;SDS011;47242;48.158;-1.586;2023-05-21T13:09:09;11.52;;;6.63;;
61373;SDS011;47242;48.158;-1.586;2023-05-21T13:11:35;12.25;;;6.75;;
61373;SDS011;47242;48.158;-1.586;2023-05-21T13:14:00;12.73;;;7.05;;
61373;SDS011;47242;48.158;-1.586;2023-05-21T13:16:26;14.63;;;7.13;;
61373;SDS011;47242;48.158;-1.586;2023-05-21T13:18:52;12.90;;;6.53;;
61373;SDS011;47242;48.158;-1.586;2023-05-21T13:21:17;12.60;;;6.10;;
61373;SDS011;47242;48.158;-1.586;2023-05-21T13:23:43;11.05;;;5.38;;
61373;SDS011;47242;48.158;-1.586;2023-05-21T13:26:09;9.82;;;6.32;;
61373;SDS011;47242;48.158;-1.586;2023-05-21T13:28:34;12.73;;;5.53;;
61373;SDS011;47242;48.158;-1.586;2023-05-21T13:31:00;10.40;;;5.43;;
61373;SDS011;47242;48.158;-1.586;2023-05-21T13:33:25;9.80;;;5.68;;
61373;SDS011;47242;48.158;-1.586;2023-05-21T13:35:51;12.43;;;6.38;;
61373;SDS011;47242;48.158;-1.586;2023-05-21T13:38:17;9.95;;;5.05;;
61373;SDS011;47242;48.158;-1.586;2023-05-21T13:40:42;10.10;;;5.47;;
61373;SDS011;47242;48.158;-1.586;2023-05-21T13:43:08;9.95;;;5.05;;
61373;SDS011;47242;48.158;-1.586;2023-05-21T13:45:33;11.00;;;5.70;;
61373;SDS011;47242;48.158;-1.586;2023-05-21T13:47:59;10.27;;;4.93;;
61373;SDS011;47242;48.158;-1.586;2023-05-21T13:50:25;9.07;;;5.13;;
61373;SDS011;47242;48.158;-1.586;2023-05-21T13:52:51;10.38;;;5.43;;
61373;SDS011;47242;48.158;-1.586;2023-05-21T13:55:16;9.60;;;6.35;;
61373;SDS011;47242;48.158;-1.586;2023-05-21T13:57:43;10.55;;;5.47;;
61373;SDS011;47242;48.158;-1.586;2023-05-21T14:00:10;10.50;;;4.90;;
61373;SDS011;47242;48.158;-1.586;2023-05-21T14:02:39;8.35;;;5.30;;
61373;SDS011;47242;48.158;-1.586;2023-05-21T14:05:05;11.25;;;5.18;;
61373;SDS011;47242;48.158;-1.586;2023-05-21T14:07:31;8.05;;;4.95;;
61373;SDS011;47242;48.158;-1.586;2023-05-21T14:09:57;11.70;;;5.80;;
61373;SDS011;47242;48.158;-1.586;2023-05-21T14:12:22;8.48;;;4.63;;
61373;SDS011;47242;48.158;-1.586;2023-05-21T14:14:48;9.18;;;5.05;;
61373;SDS011;47242;48.158;-1.586;2023-05-21T14:17:13;10.23;;;5.20;;
61373;SDS011;47242;48.158;-1.586;2023-05-21T14:19:39;8.65;;;5.20;;
61373;SDS011;47242;48.158;-1.586;2023-05-21T14:22:05;8.25;;;5.18;;
61373;SDS011;47242;48.158;-1.586;2023-05-21T14:24:31;8.52;;;4.57;;
61373;SDS011;47242;48.158;-1.586;2023-05-21T14:26:56;6.63;;;4.65;;
61373;SDS011;47242;48.158;-1.586;2023-05-21T14:29:22;11.05;;;4.68;;
61373;SDS011;47242;48.158;-1.586;2023-05-21T14:31:48;8.27;;;5.00;;
61373;SDS011;47242;48.158;-1.586;2023-05-21T14:34:13;13.02;;;5.15;;
61373;SDS011;47242;48.158;-1.586;2023-05-21T14:36:39;11.48;;;6.30;;
61373;SDS011;47242;48.158;-1.586;2023-05-21T14:39:04;8.57;;;5.03;;
61373;SDS011;47242;48.158;-1.586;2023-05-21T14:41:30;10.85;;;5.38;;
61373;SDS011;47242;48.158;-1.586;2023-05-21T14:43:56;11.70;;;5.53;;
61373;SDS011;47242;48.158;-1.586;2023-05-21T14:46:21;9.45;;;5.38;;
61373;SDS011;47242;48.158;-1.586;2023-05-21T14:48:47;11.32;;;5.50;;
61373;SDS011;47242;48.158;-1.586;2023-05-21T14:51:13;9.98;;;5.13;;
61373;SDS011;47242;48.158;-1.586;2023-05-21T14:53:39;10.77;;;5.70;;
61373;SDS011;47242;48.158;-1.586;2023-05-21T14:56:05;14.18;;;4.95;;
61373;SDS011;47242;48.158;-1.586;2023-05-21T14:58:31;11.35;;;5.55;;
61373;SDS011;47242;48.158;-1.586;2023-05-21T15:00:57;9.90;;;5.32;;
61373;SDS011;47242;48.158;-1.586;2023-05-21T15:03:23;8.82;;;4.88;;
61373;SDS011;47242;48.158;-1.586;2023-05-21T15:05:48;12.20;;;4.75;;
61373;SDS011;47242;48.158;-1.586;2023-05-21T15:08:14;8.02;;;4.75;;
61373;SDS011;47242;48.158;-1.586;2023-05-21T15:10:40;8.98;;;4.40;;
61373;SDS011;47242;48.158;-1.586;2023-05-21T15:13:05;9.13;;;4.75;;
61373;SDS011;47242;48.158;-1.586;2023-05-21T15:15:31;9.50;;;4.40;;
61373;SDS011;47242;48.158;-1.586;2023-05-21T15:17:56;9.70;;;4.47;;
61373;SDS011;47242;48.158;-1.586;2023-05-21T15:20:22;9.05;;;4.18;;
61373;SDS011;47242;48.158;-1.586;2023-05-21T15:22:48;7.90;;;4.47;;
61373;SDS011;47242;48.158;-1.586;2023-05-21T15:25:14;15.10;;;4.60;;
61373;SDS011;47242;48.158;-1.586;2023-05-21T15:27:42;11.98;;;4.63;;
61373;SDS011;47242;48.158;-1.586;2023-05-21T15:30:08;9.52;;;3.92;;
61373;SDS011;47242;48.158;-1.586;2023-05-21T15:32:34;8.20;;;4.45;;
61373;SDS011;47242;48.158;-1.586;2023-05-21T15:35:00;12.82;;;4.57;;
61373;SDS011;47242;48.158;-1.586;2023-05-21T15:37:25;9.63;;;4.30;;
61373;SDS011;47242;48.158;-1.586;2023-05-21T15:39:51;10.15;;;4.65;;
61373;SDS011;47242;48.158;-1.586;2023-05-21T15:42:17;10.32;;;4.75;;
61373;SDS011;47242;48.158;-1.586;2023-05-21T15:44:43;8.93;;;4.90;;
61373;SDS011;47242;48.158;-1.586;2023-05-21T15:47:09;7.15;;;4.55;;
61373;SDS011;47242;48.158;-1.586;2023-05-21T15:49:34;12.20;;;5.55;;
61373;SDS011;47242;48.158;-1.586;2023-05-21T15:52:00;9.18;;;5.22;;
61373;SDS011;47242;48.158;-1.586;2023-05-21T15:54:27;10.32;;;5.40;;
61373;SDS011;47242;48.158;-1.586;2023-05-21T15:56:52;10.45;;;5.00;;
61373;SDS011;47242;48.158;-1.586;2023-05-21T15:59:18;11.43;;;5.53;;
61373;SDS011;47242;48.158;-1.586;2023-05-21T16:01:44;10.48;;;5.45;;
61373;SDS011;47242;48.158;-1.586;2023-05-21T16:04:09;8.82;;;5.03;;
61373;SDS011;47242;48.158;-1.586;2023-05-21T16:06:35;9.07;;;5.40;;
61373;SDS011;47242;48.158;-1.586;2023-05-21T16:09:01;6.47;;;4.57;;
61373;SDS011;47242;48.158;-1.586;2023-05-21T16:11:27;12.52;;;5.38;;
61373;SDS011;47242;48.158;-1.586;2023-05-21T16:13:53;10.88;;;5.05;;
61373;SDS011;47242;48.158;-1.586;2023-05-21T16:16:19;10.00;;;4.78;;
61373;SDS011;47242;48.158;-1.586;2023-05-21T16:18:45;8.20;;;4.70;;
61373;SDS011;47242;48.158;-1.586;2023-05-21T16:21:11;10.60;;;4.72;;
61373;SDS011;47242;48.158;-1.586;2023-05-21T16:23:37;10.32;;;4.57;;
61373;SDS011;47242;48.158;-1.586;2023-05-21T16:26:03;9.93;;;5.13;;
61373;SDS011;47242;48.158;-1.586;2023-05-21T16:28:29;8.60;;;4.20;;
61373;SDS011;47242;48.158;-1.586;2023-05-21T16:30:55;6.57;;;3.47;;
61373;SDS011;47242;48.158;-1.586;2023-05-21T16:33:21;5.45;;;3.65;;
61373;SDS011;47242;48.158;-1.586;2023-05-21T16:35:46;5.93;;;3.92;;
61373;SDS011;47242;48.158;-1.586;2023-05-21T16:38:12;10.45;;;3.25;;
61373;SDS011;47242;48.158;-1.586;2023-05-21T16:40:38;9.35;;;4.22;;
61373;SDS011;47242;48.158;-1.586;2023-05-21T16:43:04;6.10;;;4.00;;
61373;SDS011;47242;48.158;-1.586;2023-05-21T16:45:39;6.03;;;3.50;;
61373;SDS011;47242;48.158;-1.586;2023-05-21T16:48:06;6.05;;;3.95;;
61373;SDS011;47242;48.158;-1.586;2023-05-21T16:50:32;6.53;;;3.88;;
61373;SDS011;47242;48.158;-1.586;2023-05-21T16:52:58;10.75;;;4.80;;
61373;SDS011;47242;48.158;-1.586;2023-05-21T16:55:26;8.93;;;4.05;;
61373;SDS011;47242;48.158;-1.586;2023-05-21T16:57:53;7.25;;;3.90;;
61373;SDS011;47242;48.158;-1.586;2023-05-21T17:00:24;6.38;;;3.58;;
61373;SDS011;47242;48.158;-1.586;2023-05-21T17:02:50;5.03;;;3.78;;
61373;SDS011;47242;48.158;-1.586;2023-05-21T17:05:16;5.60;;;3.63;;
61373;SDS011;47242;48.158;-1.586;2023-05-21T17:07:42;6.63;;;3.63;;
61373;SDS011;47242;48.158;-1.586;2023-05-21T17:10:08;6.90;;;3.92;;
61373;SDS011;47242;48.158;-1.586;2023-05-21T17:12:34;9.25;;;4.15;;
61373;SDS011;47242;48.158;-1.586;2023-05-21T17:14:59;7.60;;;4.03;;
61373;SDS011;47242;48.158;-1.586;2023-05-21T17:17:25;10.20;;;4.03;;
61373;SDS011;47242;48.158;-1.586;2023-05-21T17:19:51;6.00;;;3.65;;
61373;SDS011;47242;48.158;-1.586;2023-05-21T17:22:17;8.75;;;4.53;;
61373;SDS011;47242;48.158;-1.586;2023-05-21T17:24:43;7.50;;;4.20;;
61373;SDS011;47242;48.158;-1.586;2023-05-21T17:27:09;9.77;;;4.30;;
61373;SDS011;47242;48.158;-1.586;2023-05-21T17:29:34;11.18;;;4.57;;
61373;SDS011;47242;48.158;-1.586;2023-05-21T17:32:00;7.97;;;4.28;;
61373;SDS011;47242;48.158;-1.586;2023-05-21T17:34:26;10.43;;;4.40;;
61373;SDS011;47242;48.158;-1.586;2023-05-21T17:36:54;7.85;;;3.65;;
61373;SDS011;47242;48.158;-1.586;2023-05-21T17:39:21;6.18;;;3.70;;
61373;SDS011;47242;48.158;-1.586;2023-05-21T17:41:46;6.88;;;3.90;;
61373;SDS011;47242;48.158;-1.586;2023-05-21T17:44:12;6.60;;;3.88;;
61373;SDS011;47242;48.158;-1.586;2023-05-21T17:46:40;9.70;;;3.70;;
61373;SDS011;47242;48.158;-1.586;2023-05-21T17:49:06;6.20;;;3.10;;
61373;SDS011;47242;48.158;-1.586;2023-05-21T17:51:32;7.80;;;3.45;;
61373;SDS011;47242;48.158;-1.586;2023-05-21T17:53:58;6.47;;;3.50;;
61373;SDS011;47242;48.158;-1.586;2023-05-21T17:56:24;7.18;;;3.38;;
61373;SDS011;47242;48.158;-1.586;2023-05-21T17:58:50;6.22;;;3.03;;
61373;SDS011;47242;48.158;-1.586;2023-05-21T18:01:16;10.15;;;3.53;;
61373;SDS011;47242;48.158;-1.586;2023-05-21T18:03:42;5.30;;;2.80;;
61373;SDS011;47242;48.158;-1.586;2023-05-21T18:06:08;8.20;;;3.67;;
61373;SDS011;47242;48.158;-1.586;2023-05-21T18:08:33;6.05;;;3.22;;
61373;SDS011;47242;48.158;-1.586;2023-05-21T18:10:59;6.68;;;3.22;;
61373;SDS011;47242;48.158;-1.586;2023-05-21T18:13:25;8.52;;;3.85;;
61373;SDS011;47242;48.158;-1.586;2023-05-21T18:15:53;8.50;;;4.13;;
61373;SDS011;47242;48.158;-1.586;2023-05-21T18:18:20;9.20;;;3.80;;
61373;SDS011;47242;48.158;-1.586;2023-05-21T18:20:46;6.88;;;3.70;;
61373;SDS011;47242;48.158;-1.586;2023-05-21T18:23:12;5.75;;;2.85;;
61373;SDS011;47242;48.158;-1.586;2023-05-21T18:25:37;5.15;;;3.22;;
61373;SDS011;47242;48.158;-1.586;2023-05-21T18:28:03;9.05;;;3.70;;
61373;SDS011;47242;48.158;-1.586;2023-05-21T18:30:29;7.47;;;3.13;;
61373;SDS011;47242;48.158;-1.586;2023-05-21T18:32:55;7.30;;;3.28;;
61373;SDS011;47242;48.158;-1.586;2023-05-21T18:35:20;7.93;;;3.85;;
61373;SDS011;47242;48.158;-1.586;2023-05-21T18:37:46;10.32;;;3.58;;
61373;SDS011;47242;48.158;-1.586;2023-05-21T18:40:12;6.55;;;3.60;;
61373;SDS011;47242;48.158;-1.586;2023-05-21T18:42:38;3.90;;;3.13;;
61373;SDS011;47242;48.158;-1.586;2023-05-21T18:45:05;9.38;;;3.35;;
61373;SDS011;47242;48.158;-1.586;2023-05-21T18:47:32;8.18;;;3.95;;
61373;SDS011;47242;48.158;-1.586;2023-05-21T18:49:58;6.40;;;4.25;;
61373;SDS011;47242;48.158;-1.586;2023-05-21T18:52:24;6.03;;;3.90;;
61373;SDS011;47242;48.158;-1.586;2023-05-21T18:54:50;7.10;;;3.55;;
61373;SDS011;47242;48.158;-1.586;2023-05-21T18:57:16;8.68;;;3.47;;
61373;SDS011;47242;48.158;-1.586;2023-05-21T18:59:42;4.85;;;3.55;;
61373;SDS011;47242;48.158;-1.586;2023-05-21T19:02:09;7.47;;;2.95;;
61373;SDS011;47242;48.158;-1.586;2023-05-21T19:04:34;6.50;;;3.47;;
61373;SDS011;47242;48.158;-1.586;2023-05-21T19:07:00;5.47;;;3.03;;
61373;SDS011;47242;48.158;-1.586;2023-05-21T19:09:27;8.30;;;3.40;;
61373;SDS011;47242;48.158;-1.586;2023-05-21T19:11:53;7.55;;;3.42;;
61373;SDS011;47242;48.158;-1.586;2023-05-21T19:14:19;6.15;;;3.30;;
61373;SDS011;47242;48.158;-1.586;2023-05-21T19:19:16;5.82;;;3.00;;
61373;SDS011;47242;48.158;-1.586;2023-05-21T19:21:41;6.32;;;3.10;;
61373;SDS011;47242;48.158;-1.586;2023-05-21T19:24:07;6.72;;;2.67;;
61373;SDS011;47242;48.158;-1.586;2023-05-21T19:26:33;5.15;;;2.97;;
61373;SDS011;47242;48.158;-1.586;2023-05-21T19:28:59;5.82;;;3.00;;